createdAt,value
2018-07-05T00:00:05.940Z,99.90
2018-07-05T00:04:51.280Z,99.90
2018-07-05T00:09:36.440Z,99.90
2018-07-05T00:14:21.829Z,99.90
2018-07-05T00:19:07.121Z,99.90
2018-07-05T00:23:52.521Z,99.90
2018-07-05T00:28:37.836Z,99.90
2018-07-05T00:33:23.240Z,99.90
2018-07-05T00:38:08.557Z,99.90
2018-07-05T00:42:54.050Z,99.90
2018-07-05T00:47:39.737Z,99.90
2018-07-05T00:52:25.165Z,99.90
2018-07-05T00:57:10.722Z,99.90
2018-07-05T01:01:56.337Z,99.90
2018-07-05T01:06:41.509Z,99.90
2018-07-05T01:11:26.900Z,99.90
2018-07-05T01:16:12.054Z,99.90
2018-07-05T01:20:57.458Z,99.90
2018-07-05T01:25:42.873Z,99.90
2018-07-05T01:30:28.325Z,99.90
2018-07-05T01:35:13.730Z,99.90
2018-07-05T01:39:59.161Z,99.90
2018-07-05T01:44:44.472Z,99.90
2018-07-05T01:49:29.725Z,99.90
2018-07-05T01:54:15.113Z,99.90
2018-07-05T01:59:00.399Z,99.90
2018-07-05T02:03:45.657Z,99.90
2018-07-05T02:08:31.073Z,99.90
2018-07-05T02:13:16.452Z,99.90
2018-07-05T02:18:01.842Z,99.90
2018-07-05T02:22:47.098Z,99.90
2018-07-05T02:27:32.726Z,99.90
2018-07-05T02:32:17.985Z,99.90
2018-07-05T02:37:03.257Z,99.90
2018-07-05T02:41:48.775Z,99.90
2018-07-05T02:46:34.442Z,99.90
2018-07-05T02:51:19.997Z,99.90
2018-07-05T02:56:05.653Z,99.90
2018-07-05T03:00:51.033Z,99.90
2018-07-05T03:05:36.644Z,99.90
2018-07-05T03:10:22.141Z,99.90
2018-07-05T03:15:07.718Z,99.90
2018-07-05T03:19:53.185Z,99.90
2018-07-05T03:29:18.379Z,99.90
2018-07-05T03:34:04.137Z,99.90
2018-07-05T03:38:49.917Z,99.90
2018-07-05T03:43:35.857Z,99.90
2018-07-05T03:48:21.573Z,99.90
2018-07-05T03:53:07.034Z,99.90
2018-07-05T04:02:31.918Z,99.90
2018-07-05T04:07:17.442Z,99.90
2018-07-05T04:12:02.970Z,99.90
2018-07-05T04:16:48.698Z,99.90
2018-07-05T04:21:34.492Z,99.90
2018-07-05T04:26:20.097Z,99.90
2018-07-05T04:31:05.533Z,99.90
2018-07-05T04:35:51.088Z,99.90
2018-07-05T04:40:36.549Z,99.90
2018-07-05T04:45:22.606Z,99.90
2018-07-05T04:50:08.087Z,99.90
2018-07-05T04:54:54.377Z,99.90
2018-07-05T04:59:39.909Z,99.90
2018-07-05T05:04:25.842Z,99.90
2018-07-05T05:09:11.389Z,99.90
2018-07-05T05:13:57.345Z,99.90
2018-07-05T05:18:43.034Z,99.90
2018-07-05T05:23:28.836Z,99.90
2018-07-05T05:28:14.361Z,99.90
2018-07-05T05:33:01.803Z,99.90
2018-07-05T05:37:47.289Z,99.90
2018-07-05T05:42:32.666Z,99.90
2018-07-05T05:47:18.709Z,99.90
2018-07-05T05:56:45.449Z,99.90
2018-07-05T06:01:30.748Z,99.90
2018-07-05T06:06:16.726Z,99.90
2018-07-05T06:11:02.231Z,99.90
2018-07-05T06:15:47.728Z,99.90
2018-07-05T06:20:33.062Z,99.90
2018-07-05T06:25:18.349Z,99.90
2018-07-05T06:30:03.725Z,99.90
2018-07-05T06:34:49.362Z,99.90
2018-07-05T06:39:35.260Z,99.90
2018-07-05T06:44:20.701Z,99.90
2018-07-05T06:49:06.372Z,99.90
2018-07-05T06:53:51.871Z,99.90
2018-07-05T06:58:37.389Z,99.90
2018-07-05T07:03:23.025Z,99.90
2018-07-05T07:08:09.091Z,99.90
2018-07-05T07:12:54.325Z,99.90
2018-07-05T07:17:40.075Z,99.90
2018-07-05T07:22:25.434Z,99.90
2018-07-05T07:27:10.982Z,99.90
2018-07-05T07:31:56.725Z,99.90
2018-07-05T07:36:42.201Z,99.90
2018-07-05T07:41:27.865Z,99.90
2018-07-05T07:46:00.889Z,99.90
2018-07-05T07:50:33.953Z,99.90
2018-07-05T07:55:06.998Z,99.90
2018-07-05T07:59:40.066Z,99.90
2018-07-05T08:04:13.282Z,99.90
2018-07-05T08:08:46.363Z,99.90
2018-07-05T08:13:19.385Z,99.90
2018-07-05T08:17:52.474Z,99.90
2018-07-05T08:22:25.475Z,99.90
2018-07-05T08:26:58.574Z,99.90
2018-07-05T08:31:31.798Z,99.90
2018-07-05T08:36:04.726Z,99.90
2018-07-05T08:40:37.913Z,99.90
2018-07-05T08:45:10.956Z,99.90
2018-07-05T08:49:44.097Z,99.90
2018-07-05T08:54:17.154Z,99.90
2018-07-05T08:58:50.332Z,99.90
2018-07-05T09:03:23.406Z,99.90
2018-07-05T09:07:56.455Z,99.90
2018-07-05T09:12:29.618Z,99.90
2018-07-05T09:17:02.850Z,99.90
2018-07-05T09:21:35.930Z,99.90
2018-07-05T09:26:09.211Z,99.90
2018-07-05T09:35:15.650Z,99.90
2018-07-05T09:39:48.690Z,99.90
2018-07-05T09:44:21.733Z,99.90
2018-07-05T09:48:54.756Z,99.90
2018-07-05T09:53:27.803Z,99.90
2018-07-05T09:58:00.882Z,99.90
2018-07-05T10:02:34.004Z,99.90
2018-07-05T10:07:07.152Z,99.90
2018-07-05T10:11:40.620Z,99.90
2018-07-05T10:16:14.050Z,99.90
2018-07-05T10:20:47.529Z,99.90
2018-07-05T10:25:20.757Z,99.90
2018-07-05T10:30:06.625Z,99.90
2018-07-05T10:34:39.788Z,99.90
2018-07-05T10:39:13.111Z,99.90
2018-07-05T10:53:18.222Z,99.90
2018-07-05T10:58:07.275Z,99.90
2018-07-05T11:02:52.750Z,99.90
2018-07-05T11:07:38.402Z,99.90
2018-07-05T11:12:24.141Z,99.90
2018-07-05T11:17:09.657Z,99.90
2018-07-05T11:21:55.139Z,99.90
2018-07-05T11:26:40.681Z,99.90
2018-07-05T11:31:26.286Z,99.90
2018-07-05T11:36:11.923Z,99.90
2018-07-05T11:40:57.658Z,99.90
2018-07-05T11:45:43.455Z,99.90
2018-07-05T11:50:29.015Z,99.90
2018-07-05T11:55:14.712Z,99.90
2018-07-05T12:00:00.458Z,99.90
2018-07-05T12:04:46.093Z,99.90
2018-07-05T12:09:31.783Z,99.90
2018-07-05T12:14:17.385Z,99.90
2018-07-05T12:19:03.177Z,99.90
2018-07-05T12:23:48.932Z,99.90
2018-07-05T12:28:34.992Z,99.90
2018-07-05T12:33:20.777Z,99.90
2018-07-05T12:38:06.518Z,99.90
2018-07-05T12:42:51.949Z,99.90
2018-07-05T12:47:37.829Z,99.90
2018-07-05T12:52:23.608Z,99.90
2018-07-05T12:57:09.338Z,99.90
2018-07-05T13:01:55.029Z,99.90
2018-07-05T13:06:41.005Z,99.90
2018-07-05T13:16:06.491Z,99.90
2018-07-05T13:20:51.897Z,99.90
2018-07-05T13:25:37.601Z,99.90
2018-07-05T13:30:23.243Z,99.90
2018-07-05T13:35:08.742Z,99.90
2018-07-05T13:39:54.313Z,99.90
2018-07-05T13:44:39.890Z,99.90
2018-07-05T13:49:25.406Z,99.90
2018-07-05T13:54:10.897Z,99.40
2018-07-05T13:58:57.100Z,99.00
2018-07-05T14:03:42.682Z,98.20
2018-07-05T14:08:28.247Z,97.90
2018-07-05T14:13:13.897Z,97.60
2018-07-05T14:17:59.585Z,97.40
2018-07-05T14:22:46.751Z,97.20
2018-07-05T14:27:32.581Z,96.80
2018-07-05T14:32:18.066Z,96.10
2018-07-05T14:41:43.163Z,96.60
2018-07-05T14:46:29.233Z,96.90
2018-07-05T14:51:14.813Z,96.80
2018-07-05T14:56:00.336Z,97.30
2018-07-05T15:00:46.038Z,97.30
2018-07-05T15:05:31.698Z,96.80
2018-07-05T15:10:17.205Z,96.90
2018-07-05T15:15:02.653Z,97.40
2018-07-05T15:19:48.873Z,97.20
2018-07-05T15:24:34.425Z,97.00
2018-07-05T15:29:19.950Z,97.30
2018-07-05T15:34:05.538Z,97.60
2018-07-05T15:38:51.003Z,97.80
2018-07-05T15:48:07.969Z,97.90
2018-07-05T15:52:53.530Z,99.80
2018-07-05T15:57:39.136Z,99.90
2018-07-05T16:02:24.638Z,99.90
2018-07-05T16:07:09.998Z,99.90
2018-07-05T16:11:55.395Z,99.90
2018-07-05T16:16:41.064Z,99.90
2018-07-05T16:21:26.857Z,99.90
2018-07-05T16:26:12.418Z,99.90
2018-07-05T16:30:57.993Z,99.90
2018-07-05T16:35:43.817Z,99.90
2018-07-05T16:40:29.541Z,99.90
2018-07-05T16:45:15.220Z,99.90
2018-07-05T16:50:00.682Z,99.90
2018-07-05T16:54:46.367Z,99.90
2018-07-05T16:59:31.749Z,99.90
2018-07-05T17:04:17.762Z,99.90
2018-07-05T17:09:03.902Z,99.90
2018-07-05T17:13:49.575Z,99.90
2018-07-05T17:18:35.051Z,99.90
2018-07-05T17:23:20.750Z,99.90
2018-07-05T17:28:06.303Z,99.90
2018-07-05T17:32:51.978Z,99.90
2018-07-05T17:37:37.614Z,99.90
2018-07-05T17:47:02.868Z,99.90
2018-07-05T17:51:48.321Z,99.90
2018-07-05T17:56:33.901Z,99.90
2018-07-05T18:01:19.274Z,99.90
2018-07-05T18:06:04.909Z,99.90
2018-07-05T18:10:50.330Z,99.90
2018-07-05T18:15:35.958Z,99.90
2018-07-05T18:20:22.236Z,99.90
2018-07-05T18:25:07.665Z,99.90
2018-07-05T18:29:53.840Z,99.90
2018-07-05T18:34:39.776Z,99.90
2018-07-05T18:39:25.558Z,99.90
2018-07-05T18:44:11.060Z,99.90
2018-07-05T18:48:56.724Z,99.90
2018-07-05T18:53:42.167Z,99.90
2018-07-05T18:58:27.572Z,99.90
2018-07-05T19:03:13.033Z,99.90
2018-07-05T19:07:58.451Z,99.90
2018-07-05T19:12:44.021Z,99.90
2018-07-05T19:17:29.654Z,99.90
2018-07-05T19:22:15.161Z,99.90
2018-07-05T19:27:01.020Z,99.90
2018-07-05T19:31:46.719Z,99.90
2018-07-05T19:36:32.694Z,99.90
2018-07-05T19:41:18.162Z,99.90
2018-07-05T19:46:03.765Z,99.90
2018-07-05T19:50:49.038Z,99.90
2018-07-05T19:55:34.477Z,99.90
2018-07-05T20:00:20.196Z,99.90
2018-07-05T20:05:07.146Z,99.90
2018-07-05T20:09:53.094Z,99.90
2018-07-05T20:14:39.455Z,99.90
2018-07-05T20:19:25.593Z,99.90
2018-07-05T20:24:11.528Z,99.90
2018-07-05T20:28:57.363Z,99.90
2018-07-05T20:33:43.059Z,99.90
2018-07-05T20:38:29.316Z,99.90
2018-07-05T20:43:14.769Z,99.90
2018-07-05T20:48:00.519Z,99.90
2018-07-05T20:52:46.054Z,99.90
2018-07-05T20:57:31.704Z,99.90
2018-07-05T21:02:17.052Z,99.90
2018-07-05T21:07:02.806Z,99.90
2018-07-05T21:11:48.457Z,99.90
2018-07-05T21:16:34.084Z,99.90
2018-07-05T21:21:19.820Z,99.90
2018-07-05T21:26:05.209Z,99.90
2018-07-05T21:30:50.605Z,99.90
2018-07-05T21:35:36.173Z,99.90
2018-07-05T21:40:21.721Z,99.90
2018-07-05T21:49:46.843Z,99.90
2018-07-05T21:54:32.294Z,99.90
2018-07-05T21:59:17.933Z,99.90
2018-07-05T22:04:03.373Z,99.90
2018-07-05T22:08:49.156Z,99.90
2018-07-05T22:13:34.631Z,99.90
2018-07-05T22:18:25.583Z,99.90
2018-07-05T22:28:01.122Z,99.90
2018-07-05T22:32:46.702Z,99.90
2018-07-05T22:37:32.225Z,99.90
2018-07-05T22:42:17.738Z,99.90
2018-07-05T22:47:03.477Z,99.90
2018-07-05T22:51:48.859Z,99.90
2018-07-05T22:56:34.594Z,99.90
2018-07-05T23:01:20.286Z,99.90
2018-07-05T23:06:05.949Z,99.90
2018-07-05T23:10:51.633Z,99.90
2018-07-05T23:15:37.616Z,99.90
2018-07-05T23:20:22.981Z,99.90
2018-07-05T23:25:08.562Z,99.90
2018-07-05T23:29:54.081Z,99.90
2018-07-05T23:34:39.689Z,99.90
2018-07-05T23:39:25.245Z,99.90
2018-07-05T23:44:10.717Z,99.90
2018-07-05T23:48:56.645Z,99.90
2018-07-05T23:58:21.701Z,99.90
